Tiempo atmosférico en la estación meteorológica de Madrid, El Goloso, Madrid (740 m.)



Fecha
DESCASC
Temp. máxima en grados centígrados (hora)
DESCASC
Temp. mínima en grados centígrados (hora)
DESCASC
Temp. media en grados centígrados
DESCASC
Racha de viento máxima en m/sg (hora)
DESCASC
Velocidad máxima media en intervalos de 10 minutos(hora)
DESCASC
Precipitaciones diarias en mm
DESCASC
Precipitaciones de 00:00 a 06:00 en mm
DESCASC
Precipitaciones de 06:00 a 12:00 en mm
DESCASC
Precipitaciones de 12:00 a 18:00 en mm
DESCASC
Precipitaciones de 18:00 a 24:00 en mm
DESCASC
13-01-2021 5.1 (16:10) -12.3 (06:00) -3.6 1.94 (16:40) 1.11 (12:50) -- -- -- -- --
12-01-2021 1.7 (14:20) -12.8 (07:00) -5.6 1.67 (15:30) 0.83 (12:20) -- -- -- -- --
11-01-2021 3.1 (16:30) -10 (23:59) -3.5 2.22 (13:00) 1.11 (13:00) -- -- -- -- --
10-01-2021 1.3 (16:20) -3.5 (05:30) -1.1 -- (--) -- (--) -- -- -- -- --
09-01-2021 -0.3 (18:10) -2.1 (-00:0) -1.2 0 (00:10) 0 (00:10) 0.6 0 0 0.2 0.4
08-01-2021 0.8 (12:50) -5.2 (-00:0) -2.2 6.39 (15:10) 2.78 (15:00) 2.4 0 0 2.4 0
07-01-2021 1.1 (11:00) -4.3 (-00:0) -1.6 5.83 (10:30) 2.5 (10:50) 0.8 0 0 0.6 0.2
06-01-2021 4.7 (14:20) -5.8 (-00:0) -0.6 -- (--) -- (--) 0 0 0 0 0
05-01-2021 5 (14:20) -5.8 (-00:0) -0.4 -- (--) -- (--) 0 0 0 0 0
04-01-2021 5.4 (14:10) -2.3 (-00:0) 1.6 -- (--) -- (--) 0 0 0 0 0
03-01-2021 6.8 (14:10) -3.9 (-00:0) 1.5 7.22 (16:50) 3.61 (14:50) 0 0 0 0 0
02-01-2021 4.5 (13:40) -4.1 (-00:0) 0.2 -- (--) -- (--) 0 0 0 0 0
01-01-2021 6.6 (13:40) -0.2 (00:00) 3.2 11.11 (14:20) 5.28 (14:20) 0.6 0.4 0 0.2 0
31-12-2020 6.5 (15:00) -3.8 (-00:0) 1.4 5.83 (12:50) 2.5 (22:30) 1.2 0 0.2 0.2 0.8
30-12-2020 7.6 (14:20) -0.8 (-00:0) 3.4 6.67 (15:40) 3.33 (15:40) 0 0 0 0 0
29-12-2020 7.6 (13:40) -0.7 (-00:0) 3.4 10.83 (15:20) 5.28 (13:50) 0 0 0 0 0
28-12-2020 7.8 (14:50) 3.5 (00:00) 5.7 16.39 (05:00) 7.22 (14:30) 0.6 0.2 0.2 0.2 0
27-12-2020 5.6 (15:50) -4.9 (-00:0) 0.3 10.56 (23:50) 5 (23:50) 0 0 0 0 0
26-12-2020 8.3 (15:00) -3.7 (-00:0) 2.3 4.17 (15:50) 1.94 (14:40) 0.8 0 0.4 0.4 0
25-12-2020 7.5 (14:30) -0.5 (-00:0) 3.5 11.11 (11:20) 5.28 (11:30) 0 0 0 0 0
24-12-2020 10.2 (15:20) 2.9 (00:00) 6.5 3.89 (13:10) 1.94 (12:20) 0.4 0.2 0.2 0 0
23-12-2020 7.7 (17:20) 3.7 (00:00) 5.7 2.78 (13:40) 1.11 (14:50) 0.4 0.2 0 0 0.2
22-12-2020 7.8 (15:20) 4.7 (00:00) 6.3 2.78 (09:30) 1.11 (08:50) 0.6 0.4 0 0 0.2
21-12-2020 8 (18:10) 5.2 (00:00) 6.6 -- (--) -- (--) 0.6 0 0.6 0 0
20-12-2020 10.6 (16:10) 3.8 (00:00) 7.2 3.06 (14:30) 1.39 (08:50) 0 0 0 0 0
19-12-2020 7.8 (13:30) 6.6 (00:00) 7.2 -- (--) -- (--) 3.4 0 1.4 1.8 0.2

Gráficas

Temp. máximas Temp. mínimas Temp. medias Precipitaciones Rachas de viento máximas Velocidades máximas media en intervalos de 10 minutos

Datos horarios

Fecha y hora oficial Temperatura (ºC) Velocidad del viento (km/h) Dirección del viento Racha (km/h) Dirección de racha Precipitación (mm) Presión (hPa) Tendencia (hPa) Humedad (%)
2021-01-17 23:00:00 -2.6 0 Calma 6 Sur 0 -- -- 78
2021-01-17 22:00:00 -3 0 Calma 2 Sudoeste 0 -- -- 81
2021-01-17 21:00:00 -2.4 0 Calma 2 Este 0 -- -- 80
2021-01-17 20:00:00 -1.4 0 Calma 3 Este 0 -- -- 76
2021-01-17 19:00:00 0.4 0 Calma 4 Este 0 -- -- 70
2021-01-17 18:00:00 4 0 Calma 4 Este 0 -- -- 59
2021-01-17 17:00:00 7.1 0 Calma 5 Este 0 -- -- 53
2021-01-17 16:00:00 9 2 Sudeste 5 Sudoeste 0 -- -- 43
2021-01-17 15:00:00 8.7 2 Oeste 5 Sudoeste 0 -- -- 44
2021-01-17 14:00:00 7.9 0 Calma 4 Sudeste 0 -- -- 43
2021-01-17 13:00:00 5.4 3 Este 7 Este 0 -- -- 55
2021-01-17 12:00:00 3.8 3 Este 6 Este 0 -- -- 59
2021-01-17 11:00:00 1.5 2 Este 5 Sudeste 0 -- -- 62
2021-01-17 10:00:00 -5.3 0 Calma 3 Nordeste 0 -- -- 97
2021-01-17 09:00:00 -7.9 0 Calma 3 Nordeste 0 -- -- 93
2021-01-17 08:00:00 -7.5 0 Calma 7 Este 0 -- -- 93
2021-01-17 07:00:00 -6.9 0 Calma 3 Sudeste 0 -- -- 92
2021-01-17 06:00:00 -6.3 0 Calma 3 Noroeste 0 -- -- 96
2021-01-17 05:00:00 -6.3 0 Calma 2 Sudeste 0 -- -- 95
2021-01-17 04:00:00 -6.2 0 Calma 2 Nordeste 0 -- -- 94
2021-01-17 03:00:00 -5.8 0 Calma 2 Este 0 -- -- 94
2021-01-17 02:00:00 -5.1 0 Calma 2 Este 0 -- -- 92
2021-01-17 01:00:00 -4.3 0 Calma 2 Este 0 -- -- 89
2021-01-17 00:00:00 -2.7 0 Calma 5 Oeste 0 -- -- 88
2021-01-16 23:00:00 -3 2 Oeste 3 Oeste 0 -- -- 91
2021-01-16 22:00:00 -2 2 Oeste 4 Nordeste 0 -- -- 90
2021-01-16 21:00:00 -2.3 0 Calma 3 Este 0 -- -- 89
2021-01-16 20:00:00 -1.1 0 Calma 2 Sudeste 0 -- -- 83
2021-01-16 19:00:00 1.1 0 Calma 3 Sudeste 0 -- -- 77
2021-01-16 18:00:00 5.1 0 Calma 5 Sudoeste 0 -- -- 67
2021-01-16 17:00:00 8.5 0 Calma 7 Sur 0 -- -- 55
2021-01-16 16:00:00 8.3 0 Calma 7 Este 0 -- -- 57
2021-01-16 15:00:00 10.1 2 Oeste 6 Noroeste 0 -- -- 45
2021-01-16 14:00:00 9.7 2 Oeste 5 Oeste 0 -- -- 43
2021-01-16 13:00:00 7.1 2 Sudeste 6 Sudeste 0 -- -- 60
2021-01-16 12:00:00 6.5 3 Este 8 Este 0 -- -- 62
2021-01-16 11:00:00 3.9 0 Calma 6 Noroeste 0 -- -- 70
2021-01-16 10:00:00 -1.7 2 Noroeste 6 Noroeste 0 -- -- 91
2021-01-16 09:00:00 -4.1 0 Calma 4 Noroeste 0 -- -- 95
2021-01-16 08:00:00 -3.9 0 Calma 5 Noroeste 0 -- -- 94
2021-01-16 07:00:00 -2.4 2 Oeste 4 Noroeste 0 -- -- 95
2021-01-16 06:00:00 -1.9 2 Oeste 6 Oeste 0 -- -- 95
2021-01-16 05:00:00 -- -- -- -- -- -- -- -- --
2021-01-16 04:00:00 -- -- -- -- -- -- -- -- --
2021-01-16 03:00:00 -- -- -- -- -- -- -- -- --
2021-01-16 02:00:00 -- -- -- -- -- -- -- -- --
2021-01-16 01:00:00 -- -- -- -- -- -- -- -- --
2021-01-16 00:00:00 -- -- -- -- -- -- -- -- --
2021-01-15 23:00:00 -- -- -- -- -- -- -- -- --
2021-01-15 22:00:00 -- -- -- -- -- -- -- -- --
2021-01-15 21:00:00 -1.2 4 Oeste -- -- -- -- -- --
2021-01-15 20:00:00 1.5 3 Oeste 5 Oeste 0 -- -- 85
2021-01-15 19:00:00 1.8 0 Calma 6 Este 0 -- -- 78
2021-01-15 18:00:00 4.4 2 Oeste 6 Oeste 0 -- -- 70
2021-01-15 17:00:00 7 -- -- -- -- 0 -- -- --
2021-01-15 16:00:00 6.5 3 Sudeste 7 Sudeste 0 -- -- 67
2021-01-15 15:00:00 6.5 3 Sudeste 6 Sudeste 0 -- -- 67
2021-01-15 14:00:00 6.3 0 Calma 8 Oeste 0 -- -- 67
2021-01-15 13:00:00 5.9 3 Oeste 10 Oeste -- -- -- 67
2021-01-15 12:00:00 4.5 5 Oeste 10 Oeste -- -- -- 73
2021-01-15 11:00:00 2 0 Calma 3 Oeste -- -- -- 92
2021-01-15 10:00:00 -4.1 0 Calma 3 Noroeste -- -- -- 100
2021-01-15 09:00:00 -6.7 0 Calma 5 Nordeste -- -- -- 97
2021-01-15 08:00:00 -7.2 0 Calma 3 Este -- -- -- 95
2021-01-15 07:00:00 -6.9 0 Calma 3 Sudeste -- -- -- 94
2021-01-15 06:00:00 -6.3 0 Calma 2 Noroeste -- -- -- 92
2021-01-15 05:00:00 -5.3 0 Calma 3 Noroeste -- -- -- 90
2021-01-15 04:00:00 -3.8 0 Calma 5 Oeste -- -- -- 87
2021-01-15 03:00:00 -1 4 Oeste 6 Oeste -- -- -- 84
2021-01-15 02:00:00 -0.2 4 Oeste 7 Noroeste -- -- -- 79
2021-01-15 01:00:00 -1.2 3 Oeste 6 Oeste -- -- -- 78
2021-01-15 00:00:00 -1.6 2 Oeste 6 Sudoeste -- -- -- 83
2021-01-14 23:00:00 -0.4 3 Oeste 5 Oeste -- -- -- 81
2021-01-14 22:00:00 -0.8 3 Sudoeste 6 Sudoeste -- -- -- 81
2021-01-14 21:00:00 -0.5 3 Oeste 6 Sudoeste -- -- -- 79
2021-01-14 20:00:00 -0.4 2 Oeste 5 Oeste -- -- -- 78
2021-01-14 19:00:00 -1.6 2 Noroeste 4 Noroeste -- -- -- 82
2021-01-14 18:00:00 0.7 0 Calma 5 Este -- -- -- 73
2021-01-14 17:00:00 4 0 Calma 6 Sudeste -- -- -- 65
2021-01-14 16:00:00 6.1 2 Sudeste 4 Este -- -- -- 59
2021-01-14 15:00:00 5.6 2 Sudeste 4 Este -- -- -- 58
2021-01-14 14:00:00 4.6 3 Sudeste 7 Sudeste -- -- -- 59
2021-01-14 13:00:00 3.9 0 Calma 7 Noroeste -- -- -- 65
2021-01-14 12:00:00 3.2 2 Este 5 Este -- -- -- 63
2021-01-14 11:00:00 -0.1 0 Calma 3 Sudeste -- -- -- 81
2021-01-14 10:00:00 -7.1 0 Calma 4 Noroeste -- -- -- 96
2021-01-14 09:00:00 -9.7 0 Calma 3 Noroeste -- -- -- 95
2021-01-14 08:00:00 -10.4 0 Calma 2 Noroeste -- -- -- 93
2021-01-14 07:00:00 -10 0 Calma 2 Este -- -- -- 92
2021-01-14 06:00:00 -9.1 0 Calma 3 Este -- -- -- 92
2021-01-14 05:00:00 -8.3 0 Calma 2 Noroeste -- -- -- 91
2021-01-14 04:00:00 -7.2 0 Calma 3 Oeste -- -- -- 92
2021-01-14 03:00:00 -6.8 2 Oeste 3 Oeste -- -- -- 98
2021-01-14 02:00:00 -8.1 0 Calma 2 Sudeste -- -- -- 93
2021-01-14 01:00:00 -7.7 0 Calma 3 Nordeste -- -- -- 93
2021-01-14 00:00:00 -7.2 0 Calma 2 Este -- -- -- 90
2021-01-13 23:00:00 -6.3 0 Calma 3 Norte -- -- -- 89
2021-01-13 22:00:00 -5.8 0 Calma 2 Noroeste -- -- -- 89
2021-01-13 21:00:00 -5.1 0 Calma 0 Calma -- -- -- 88
2021-01-13 20:00:00 -3.8 0 Calma 2 Este -- -- -- 86
2021-01-13 19:00:00 -2.3 0 Calma 3 Nordeste -- -- -- 81
2021-01-13 18:00:00 0.5 0 Calma 6 Nordeste -- -- -- 74
2021-01-13 17:00:00 3.6 0 Calma 7 Este -- -- -- 65
2021-01-13 16:00:00 5 2 Oeste 6 Sudoeste -- -- -- 52
2021-01-13 15:00:00 4.4 2 Sudeste 5 Este -- -- -- 60
2021-01-13 14:00:00 4.3 2 Sudeste 5 Este -- -- -- 60
2021-01-13 13:00:00 3.2 4 Sudeste 6 Este -- -- -- 63
2021-01-13 12:00:00 0.6 0 Calma 4 Este -- -- -- 72
2021-01-13 11:00:00 -3.2 0 Calma 6 Este -- -- -- 90
2021-01-13 10:00:00 -7.5 0 Calma 2 Noroeste -- -- -- 98
2021-01-13 09:00:00 -11.4 0 Calma 2 Norte -- -- -- 93
2021-01-13 08:00:00 -11.5 0 Calma 4 Este -- -- -- 95
2021-01-13 07:00:00 -12.1 0 Calma 2 Nordeste -- -- -- 93
2021-01-13 06:00:00 -12.3 0 Calma 2 Sudeste -- -- -- 92
2021-01-13 05:00:00 -12.2 0 Calma 2 Este -- -- -- 92
2021-01-13 04:00:00 -11.8 0 Calma 2 Este -- -- -- 93
2021-01-13 03:00:00 -11.4 0 Calma 2 Este -- -- -- 92
2021-01-13 02:00:00 -10.6 0 Calma 2 Sudeste -- -- -- 92
2021-01-13 01:00:00 -9.9 0 Calma 2 Sudeste -- -- -- 92
2021-01-13 00:00:00 -9.3 0 Calma 3 Sudeste -- -- -- 94
2021-01-12 23:00:00 -9.3 0 Calma 2 Sudoeste -- -- -- 94
2021-01-12 22:00:00 -9.1 0 Calma 2 Sudeste -- -- -- 92
2021-01-12 21:00:00 -8.3 0 Calma 2 Sudeste -- -- -- 91
2021-01-12 20:00:00 -7.4 0 Calma 2 Este -- -- -- 88
2021-01-12 19:00:00 -5.5 0 Calma 3 Nordeste -- -- -- 81
2021-01-12 18:00:00 -2.2 0 Calma 5 Este -- -- -- 77
2021-01-12 17:00:00 0.1 2 Este 5 Este -- -- -- 72
2021-01-12 16:00:00 0.4 3 Este 6 Este -- -- -- 70
2021-01-12 15:00:00 0.8 3 Este 5 Este -- -- -- 69
2021-01-12 14:00:00 1.4 2 Este 5 Sudeste -- -- -- 67
2021-01-12 13:00:00 0.1 2 Este 5 Este -- -- -- 70
2021-01-12 12:00:00 -1.4 2 Este 3 Este -- -- -- 75
2021-01-12 11:00:00 -5 2 Sudeste 5 Este -- -- -- 92
2021-01-12 10:00:00 -9.6 2 Sudeste 3 Este -- -- -- 99
2021-01-12 09:00:00 -12.7 0 Calma 2 Noroeste -- -- -- 93
2021-01-12 08:00:00 -12.8 0 Calma 2 Sudeste -- -- -- 93
2021-01-12 07:00:00 -12.8 0 Calma 2 Sudeste -- -- -- 92
2021-01-12 06:00:00 -12.4 0 Calma 2 Sudeste -- -- -- 93
2021-01-12 05:00:00 -12.2 0 Calma 0 Calma -- -- -- 93
2021-01-12 04:00:00 -12 0 Calma 2 Este -- -- -- 92
2021-01-12 03:00:00 -11.7 0 Calma 2 Este -- -- -- 93
2021-01-12 02:00:00 -11.2 0 Calma 2 Este -- -- -- 93
2021-01-12 01:00:00 -10.6 0 Calma 3 Este -- -- -- 93
2021-01-12 00:00:00 -10 0 Calma 2 Este -- -- -- 93
2021-01-11 23:00:00 -9.1 0 Calma 2 Norte -- -- -- 92
2021-01-11 22:00:00 -8.1 0 Calma 2 Nordeste -- -- -- 92
2021-01-11 21:00:00 -6.7 0 Calma 5 Sur -- -- -- 90
2021-01-11 20:00:00 -5.6 0 Calma 0 Calma -- -- -- 89
2021-01-11 19:00:00 -3.7 0 Calma -- -- -- -- -- 85
2021-01-11 18:00:00 -0.7 0 Calma -- -- -- -- -- 77
2021-01-11 17:00:00 2.9 3 Sur -- -- -- -- -- 67
2021-01-11 16:00:00 -- -- -- -- -- -- -- -- --
2021-01-11 15:00:00 -- -- -- -- -- -- -- -- --
2021-01-11 14:00:00 -- -- -- -- -- -- -- -- --
2021-01-11 13:00:00 -- -- -- -- -- -- -- -- --
2021-01-11 12:00:00 0.5 0 Calma -- -- -- -- -- 97
2021-01-11 11:00:00 -2.1 0 Calma 2 Sudeste -- -- -- 100
2021-01-11 10:00:00 -7.9 0 Calma 3 Noroeste -- -- -- 97
2021-01-11 09:00:00 -9.2 0 Calma 6 Noroeste -- -- -- 94
2021-01-11 08:00:00 -9.8 3 Noroeste 4 Noroeste -- -- -- 95
2021-01-11 07:00:00 -9.5 0 Calma 2 Noroeste -- -- -- 94
2021-01-11 06:00:00 -8.7 0 Calma 2 Noroeste -- -- -- 95
2021-01-11 05:00:00 -7.5 0 Calma 3 Este -- -- -- 95
2021-01-11 04:00:00 -6 0 Calma 5 Este -- -- -- 95
2021-01-11 03:00:00 -4.4 3 Nordeste 5 Este -- -- -- 99
2021-01-11 02:00:00 -3.2 2 Este 8 Este -- -- -- 100
2021-01-11 01:00:00 -1.9 0 Calma 6 Nordeste -- -- -- 100
2021-01-11 00:00:00 -1.2 0 Calma -- -- -- -- -- 100
2021-01-10 23:00:00 -0.6 0 Calma 2 Norte -- -- -- 100
2021-01-10 22:00:00 -- -- -- -- -- -- -- -- --
2021-01-10 21:00:00 0 -- -- -- -- -- -- -- --
2021-01-10 20:00:00 0.2 2 Nordeste -- -- -- -- -- 100
2021-01-10 19:00:00 0.3 2 Nordeste 5 Nordeste -- -- -- 100
2021-01-10 18:00:00 0.7 2 Este 13 Este -- -- -- 100
2021-01-10 17:00:00 1 5 Este 14 Este -- -- -- 99
2021-01-10 16:00:00 0.9 3 Este 13 Este -- -- -- 100
2021-01-10 15:00:00 0.7 4 Este 10 Sudeste 2.8 -- -- 100
2021-01-10 14:00:00 -0.1 3 Este 10 Este 2.4 -- -- 100
2021-01-10 13:00:00 -0.1 3 Este 15 Nordeste 1.2 -- -- 100
2021-01-10 12:00:00 -0.4 0 Calma 0 Calma 0 -- -- 100
2021-01-10 11:00:00 -1.2 0 Calma -- -- 0 -- -- 100
2021-01-10 10:00:00 -1.6 0 Calma -- -- 0 -- -- 100
2021-01-10 09:00:00 -2.2 0 Calma -- -- 0 -- -- 100
2021-01-10 08:00:00 -2.3 0 Calma -- -- 0 -- -- 100
2021-01-10 07:00:00 -2.8 0 Calma -- -- 0 -- -- 100
2021-01-10 06:00:00 -3.4 0 Calma -- -- 0 -- -- 100
2021-01-10 05:00:00 -3.3 0 Calma -- -- 0.2 -- -- 100
2021-01-10 04:00:00 -2.4 0 Calma -- -- 0 -- -- 100
2021-01-10 03:00:00 -1.6 0 Calma -- -- 0 -- -- 100
2021-01-10 02:00:00 -0.4 0 Calma -- -- 0 -- -- 100
2021-01-10 01:00:00 -0.3 0 Calma -- -- 0 -- -- 100
2021-01-10 00:00:00 -0.3 0 Calma -- -- 0 -- -- 100
2021-01-09 23:00:00 -0.3 0 Calma -- -- 0.2 -- -- 100
2021-01-09 22:00:00 -0.3 0 Calma -- -- 0 -- -- 100
2021-01-09 21:00:00 -0.4 0 Calma -- -- 0.2 -- -- 100
2021-01-09 20:00:00 -0.4 0 Calma -- -- 0 -- -- 100
2021-01-09 19:00:00 -0.3 0 Calma -- -- 0 -- -- 100
2021-01-09 18:00:00 -0.4 0 Calma -- -- 0.2 -- -- 100
2021-01-09 17:00:00 -0.4 0 Calma -- -- 0 -- -- 100
2021-01-09 16:00:00 -0.6 0 Calma -- -- 0 -- -- 100
2021-01-09 15:00:00 -0.9 0 Calma -- -- 0 -- -- 100
2021-01-09 14:00:00 -1.1 0 Calma -- -- 0 -- -- 100
2021-01-09 13:00:00 -1.3 0 Calma -- -- 0 -- -- 100
2021-01-09 12:00:00 -1.6 0 Calma -- -- 0 -- -- 100
2021-01-09 11:00:00 -1.7 0 Calma -- -- 0 -- -- 100
2021-01-09 10:00:00 -1.8 0 Calma -- -- 0 -- -- 100
2021-01-09 09:00:00 -1.9 0 Calma -- -- 0 -- -- 100
2021-01-09 08:00:00 -2 0 Calma -- -- 0 -- -- 100
2021-01-09 07:00:00 -2.1 0 Calma -- -- 0 -- -- 100
2021-01-09 06:00:00 -2 0 Calma -- -- 0 -- -- 100
2021-01-09 05:00:00 -2 0 Calma -- -- 0 -- -- 100
2021-01-09 04:00:00 -2 0 Calma -- -- 0 -- -- 100
2021-01-09 03:00:00 -2 0 Calma -- -- 0 -- -- 100
2021-01-09 02:00:00 -1.9 0 Calma -- -- 0 -- -- 100
2021-01-09 01:00:00 -1.6 0 Calma -- -- 0 -- -- 100
2021-01-09 00:00:00 -1.4 0 Calma -- -- 0 -- -- 100
2021-01-08 23:00:00 -1.3 0 Calma -- -- 0 -- -- 100
2021-01-08 22:00:00 -1.2 0 Calma -- -- 0 -- -- 100
2021-01-08 21:00:00 -1 0 Calma -- -- 0 -- -- 100
2021-01-08 20:00:00 -0.6 0 Calma -- -- 0 -- -- 99
2021-01-08 19:00:00 -0.3 0 Calma 17 Este 0 -- -- 99
2021-01-08 18:00:00 -0.1 7 Nordeste 19 Este 0 -- -- 99
2021-01-08 17:00:00 0 6 Este 20 Nordeste 0.2 -- -- 98
2021-01-08 16:00:00 0.1 10 Nordeste 23 Nordeste 0.6 -- -- 97
2021-01-08 15:00:00 0.2 10 Nordeste 19 Este 0.6 -- -- 96
2021-01-08 14:00:00 0.2 8 Este 17 Nordeste 0.6 -- -- 92
2021-01-08 13:00:00 0.8 5 Este 12 Nordeste 0.4 -- -- 82
2021-01-08 12:00:00 0.3 4 Este 13 Este 0 -- -- 82
2021-01-08 11:00:00 -0.6 4 Este 13 Nordeste 0 -- -- 82
2021-01-08 10:00:00 -1.9 5 Este 13 Nordeste 0 -- -- 76
2021-01-08 09:00:00 -2.4 5 Nordeste 14 Nordeste 0 -- -- 75
2021-01-08 08:00:00 -3.5 3 Este 13 Este 0 -- -- 85
2021-01-08 07:00:00 -3.2 5 Nordeste 13 Nordeste 0 -- -- 78
2021-01-08 06:00:00 -3.6 0 Calma -- -- 0 -- -- 81
2021-01-08 05:00:00 -4.6 0 Calma -- -- 0 -- -- 85
2021-01-08 04:00:00 -3.5 0 Calma -- -- 0 -- -- 78
2021-01-08 03:00:00 -4.1 0 Calma -- -- 0 -- -- 82
2021-01-08 02:00:00 -4 0 Calma -- -- 0 -- -- 84
2021-01-08 01:00:00 -3.9 0 Calma -- -- 0 -- -- 85
2021-01-08 00:00:00 -3.6 0 Calma -- -- 0 -- -- 90
2021-01-07 23:00:00 -4 0 Calma -- -- 0 -- -- 90
2021-01-07 22:00:00 -3.2 0 Calma -- -- 0 -- -- 90
2021-01-07 21:00:00 -2 0 Calma -- -- 0 -- -- 90
2021-01-07 20:00:00 -1.8 0 Calma -- -- 0 -- -- 93
2021-01-07 19:00:00 -0.8 0 Calma -- -- 0.2 -- -- 95
2021-01-07 18:00:00 -0.3 0 Calma -- -- 0.4 -- -- 95
2021-01-07 17:00:00 -0.2 0 Calma -- -- 0.2 -- -- 95
2021-01-07 16:00:00 -0.2 0 Calma 6 Este 0 -- -- 95
2021-01-07 15:00:00 -0.5 2 Este 7 Este 0 -- -- 95
2021-01-07 14:00:00 -0.4 2 Este 5 Este 0 -- -- 93
2021-01-07 13:00:00 0 2 Este 15 Nordeste 0 -- -- 87
2021-01-07 12:00:00 1.1 6 Nordeste 18 Este 0 -- -- 67
2021-01-07 11:00:00 1.1 8 Este 21 Nordeste 0 -- -- 66
2021-01-07 10:00:00 0.3 8 Nordeste 17 Nordeste 0 -- -- 69
2021-01-07 09:00:00 -0.3 5 Nordeste 12 Nordeste 0 -- -- 71
2021-01-07 08:00:00 -0.6 3 Nordeste 10 Este 0 -- -- 74
2021-01-07 07:00:00 -0.6 4 Nordeste 9 Nordeste 0 -- -- 72
2021-01-07 06:00:00 -1.1 4 Este 9 Este 0 -- -- 74
2021-01-07 05:00:00 -0.7 5 Nordeste 10 Este 0 -- -- 71
2021-01-07 04:00:00 -0.6 3 Este 12 Nordeste 0 -- -- 72
2021-01-07 03:00:00 -1.2 3 Este 11 Este 0 -- -- 76
2021-01-07 02:00:00 -1.6 3 Este 12 Nordeste 0 -- -- 79
2021-01-07 01:00:00 -0.8 5 Nordeste 13 Nordeste 0 -- -- 74
2021-01-07 00:00:00 -0.8 5 Nordeste 11 Nordeste 0 -- -- 74
2021-01-06 23:00:00 -0.3 4 Este 12 Nordeste 0 -- -- 76
2021-01-06 22:00:00 -0.5 3 Nordeste 9 Este 0 -- -- 78
2021-01-06 21:00:00 0.1 3 Este 8 Nordeste 0 -- -- 74
2021-01-06 20:00:00 0.5 3 Nordeste 7 Nordeste 0 -- -- 79
2021-01-06 19:00:00 -0.7 0 Calma 3 Este 0 -- -- 79
2021-01-06 18:00:00 1.3 0 Calma 5 Este 0 -- -- 73
2021-01-06 17:00:00 4.4 3 Este 9 Sudeste 0 -- -- 57
2021-01-06 16:00:00 4.7 5 Este 12 Este 0 -- -- 56
2021-01-06 15:00:00 4.6 4 Sudeste 12 Sudeste 0 -- -- 58
2021-01-06 14:00:00 4.6 5 Sudeste 13 Sudeste 0 -- -- 62
2021-01-06 13:00:00 3.5 -- -- -- -- 0 -- -- 64
2021-01-06 12:00:00 1.8 6 Este 14 Este 0 -- -- 77
2021-01-06 11:00:00 -0.5 4 Este 11 Este 0 -- -- 84
2021-01-06 10:00:00 -3.7 4 Este 10 Este 0 -- -- 94
2021-01-06 09:00:00 -5.6 0 Calma 3 Este 0 -- -- 95
2021-01-06 08:00:00 -5.8 0 Calma 3 Este 0 -- -- 92
2021-01-06 07:00:00 -4.9 2 Este 5 Este 0 -- -- 92
2021-01-06 06:00:00 -5.1 2 Este 7 Nordeste 0 -- -- 92
2021-01-06 05:00:00 -4.9 2 Este 4 Este 0 -- -- 91
2021-01-06 04:00:00 -4.4 0 Calma 4 Este 0 -- -- 92
2021-01-06 03:00:00 -4.8 2 Este 3 Este 0 -- -- 91
2021-01-06 02:00:00 -5.1 3 Nordeste 5 Nordeste 0 -- -- 90
2021-01-06 01:00:00 -5.1 0 Calma 3 Este 0 -- -- 87
2021-01-06 00:00:00 -4.2 0 Calma 2 Sudeste 0 -- -- 83
2021-01-05 23:00:00 -2.8 0 Calma 4 Noroeste 0 -- -- 77
2021-01-05 22:00:00 -1.6 3 Noroeste 5 Noroeste 0 -- -- 76
2021-01-05 21:00:00 -1 3 Noroeste 4 Noroeste 0 -- -- 72
2021-01-05 20:00:00 -1.4 0 Calma 4 Sudoeste 0 -- -- 72
2021-01-05 19:00:00 -0.2 0 Calma 3 Sudoeste 0 -- -- 66
2021-01-05 18:00:00 2.2 0 Calma 6 Sur 0 -- -- 58
2021-01-05 17:00:00 4.5 4 Sur 11 Sudoeste 0 -- -- 47
2021-01-05 16:00:00 4.7 4 Sudeste 10 Sur 0 -- -- 51
2021-01-05 15:00:00 4.4 5 Sur 16 Sur 0 -- -- 53
2021-01-05 14:00:00 4.9 4 Sur 15 Sur 0 -- -- 52
2021-01-05 13:00:00 4.2 -- -- -- -- 0 -- -- --
2021-01-05 12:00:00 2.7 2 Sur 7 Sudeste 0 -- -- 67
2021-01-05 11:00:00 0.5 3 Sur 8 Sur 0 -- -- 80
2021-01-05 10:00:00 -3 3 Este 8 Este 0 -- -- 96
2021-01-05 09:00:00 -5.2 0 Calma 3 Sudeste 0 -- -- 94
2021-01-05 08:00:00 -5.7 0 Calma 4 Sudeste 0 -- -- 93
2021-01-05 07:00:00 -5.8 0 Calma 2 Este 0 -- -- 91
2021-01-05 06:00:00 -5.3 0 Calma 4 Este 0 -- -- 92
2021-01-05 05:00:00 -5 0 Calma 2 Este 0 -- -- 90
2021-01-05 04:00:00 -4.3 0 Calma 4 Este 0 -- -- 89
2021-01-05 03:00:00 -4 0 Calma 2 Norte 0 -- -- 89
2021-01-05 02:00:00 -3.3 0 Calma 2 Oeste 0 -- -- 85
2021-01-05 01:00:00 -1.6 0 Calma 5 Noroeste 0 -- -- 81
2021-01-05 00:00:00 -0.8 2 Oeste 5 Oeste 0 -- -- 79
2021-01-04 23:00:00 -0.6 3 Oeste 6 Oeste 0 -- -- 78
2021-01-04 22:00:00 -0.6 2 Oeste 5 Sudoeste 0 -- -- 75
2021-01-04 21:00:00 -2.1 0 Calma 5 Sudoeste 0 -- -- 76
2021-01-04 20:00:00 -0.4 0 Calma 4 Noroeste 0 -- -- 70
2021-01-04 19:00:00 0.7 2 Noroeste 12 Oeste 0 -- -- 66
2021-01-04 18:00:00 2.7 3 Oeste 24 Noroeste 0 -- -- 59
2021-01-04 17:00:00 4.5 13 Oeste 30 Noroeste 0 -- -- 52
2021-01-04 16:00:00 4.9 13 Oeste 32 Noroeste 0 -- -- 51
2021-01-04 15:00:00 5.4 14 Oeste 32 Noroeste 0 -- -- 48
2021-01-04 14:00:00 5.3 14 Oeste 30 Oeste 0 -- -- 50
2021-01-04 13:00:00 4.9 -- -- -- -- 0 -- -- --
2021-01-04 12:00:00 4.2 10 Oeste 28 Noroeste 0 -- -- 56
2021-01-04 11:00:00 3.2 11 Oeste 25 Noroeste 0 -- -- 61
2021-01-04 10:00:00 1.8 9 Oeste 23 Oeste 0 -- -- 66
2021-01-04 09:00:00 0.9 8 Oeste 23 Noroeste 0 -- -- 68
2021-01-04 08:00:00 1.1 9 Noroeste 22 Noroeste 0 -- -- 70
2021-01-04 07:00:00 1.1 3 Oeste 9 Noroeste 0 -- -- 70
2021-01-04 06:00:00 1.4 4 Oeste 18 Noroeste 0 -- -- 69
2021-01-04 05:00:00 2.1 8 Oeste 20 Oeste 0 -- -- 70
2021-01-04 04:00:00 0.7 4 Oeste 16 Sudoeste 0 -- -- 79
2021-01-04 03:00:00 0.9 4 Oeste 12 Oeste 0 -- -- 79
2021-01-04 02:00:00 0.9 2 Oeste 8 Oeste 0 -- -- 80
2021-01-04 01:00:00 0.9 0 Calma 8 Oeste 0 -- -- 73
2021-01-04 00:00:00 1.2 3 Oeste 10 Sudoeste 0 -- -- 72
2021-01-03 23:00:00 2.5 5 Oeste 24 Noroeste 0 -- -- 67
2021-01-03 22:00:00 2.5 10 Noroeste 22 Noroeste 0 -- -- 70
2021-01-03 21:00:00 2.1 6 Oeste 17 Sudoeste 0 -- -- 71
2021-01-03 20:00:00 2.2 12 Oeste 24 Oeste 0 -- -- 67
2021-01-03 19:00:00 2.3 6 Oeste 15 Noroeste 0 -- -- 69
2021-01-03 18:00:00 3.9 4 Oeste 26 Noroeste 0 -- -- 61
2021-01-03 17:00:00 5.9 11 Oeste 26 Noroeste 0 -- -- 48
2021-01-03 16:00:00 5.9 12 Oeste 24 Noroeste 0 -- -- 50
2021-01-03 15:00:00 6.6 10 Oeste 25 Noroeste 0 -- -- 50
2021-01-03 14:00:00 6.7 9 Oeste 22 Oeste 0 -- -- 48
2021-01-03 13:00:00 5.8 8 Oeste 17 Oeste 0 -- -- 54
2021-01-03 12:00:00 4.9 3 Sudoeste 8 Sudoeste 0 -- -- 59
2021-01-03 11:00:00 1.2 3 Sudeste 7 Sudeste 0 -- -- 75
2021-01-03 10:00:00 -0.8 3 Oeste 7 Oeste 0 -- -- 80
2021-01-03 09:00:00 -2.8 3 Oeste 6 Oeste 0 -- -- 84
2021-01-03 08:00:00 -2.8 2 Oeste 5 Oeste 0 -- -- 79
2021-01-03 07:00:00 -2.9 3 Oeste 11 Noroeste 0 -- -- 79
2021-01-03 06:00:00 -3.8 0 Calma 9 Sudoeste 0 -- -- 81
2021-01-03 05:00:00 -3.9 0 Calma 6 Noroeste 0 -- -- 80
2021-01-03 04:00:00 -2.4 2 Oeste 10 Nordeste 0 -- -- 76
2021-01-03 03:00:00 -3.4 2 Nordeste 5 Sudeste 0 -- -- 77
2021-01-03 02:00:00 -2.4 2 Nordeste 7 Sur 0 -- -- 73
2021-01-03 01:00:00 -2.2 0 Calma 6 Sur 0 -- -- 71
2021-01-03 00:00:00 -1.8 2 Sur 9 Sudeste 0 -- -- 68
2021-01-02 23:00:00 -0.8 0 Calma 11 Oeste 0 -- -- 63
2021-01-02 22:00:00 1 4 Noroeste 23 Nordeste 0 -- -- 53
2021-01-02 21:00:00 -0.8 3 Oeste 9 Nordeste 0 -- -- 62
2021-01-02 20:00:00 1.4 4 Noroeste 27 Norte 0 -- -- 54
2021-01-02 19:00:00 1.8 8 Norte 23 Norte 0 -- -- 52
2021-01-02 18:00:00 2.5 8 Norte 22 Noroeste 0 -- -- 53
2021-01-02 17:00:00 2.7 10 Norte 34 Norte 0 -- -- 52
2021-01-02 16:00:00 2.8 8 Norte 27 Nordeste 0 -- -- 53
2021-01-02 15:00:00 2.7 13 Norte 40 Norte 0 -- -- 56
2021-01-02 14:00:00 3.8 13 Norte 32 Norte 0 -- -- 49